Time;durP1;ratioP1;P1;durP2;ratioP2;P2;SDS_P1;SDS_P2;PMS_P1;PMS_P2;Temp;Humidity;BMP_temperature;BMP_pressure;BME280_temperature;BME280_humidity;BME280_pressure;Samples;Min_cycle;Max_cycle;Signal;HPM_P1;HPM_P2
2022/07/17 00:00:42;;;;;;;2.20;2.00;;;22.60;47.50;;;-142.21;48.03;112049.66;5115451;28;20276;-76
2022/07/17 00:03:09;;;;;;;2.00;1.80;;;22.50;47.50;;;-142.21;47.96;112049.66;5116195;28;20195;-75
2022/07/17 00:05:37;;;;;;;1.90;1.80;;;22.50;47.60;;;-142.21;48.24;112049.66;5116500;28;20204;-76
2022/07/17 00:08:07;;;;;;;3.53;2.13;;;22.50;47.70;;;-142.21;48.35;112049.66;5116908;28;20204;-76
2022/07/17 00:10:35;;;;;;;2.10;1.90;;;22.40;47.70;;;-142.21;48.16;112049.66;5115804;28;20234;-76
2022/07/17 00:13:02;;;;;;;2.47;2.00;;;22.40;47.70;;;-142.21;48.18;112049.66;5109776;28;20533;-76
2022/07/17 00:15:30;;;;;;;2.17;1.90;;;22.40;47.60;;;-142.21;48.63;112049.66;5116082;28;20627;-77
2022/07/17 00:17:57;;;;;;;2.20;2.00;;;22.50;47.80;;;-142.21;49.29;112049.66;5115834;28;20592;-75
2022/07/17 00:20:25;;;;;;;2.63;2.00;;;22.30;47.90;;;-142.21;50.01;112049.66;5116282;28;20545;-75
2022/07/17 00:22:52;;;;;;;2.43;2.23;;;22.30;48.10;;;-142.21;51.11;112049.66;5115317;28;20286;-76
2022/07/17 00:25:21;;;;;;;2.43;2.23;;;22.20;48.40;;;-142.21;51.89;112049.66;5116537;28;20219;-76
2022/07/17 00:27:48;;;;;;;2.40;2.03;;;22.20;48.90;;;-142.21;51.90;112049.66;5115032;28;20207;-75
2022/07/17 00:30:17;;;;;;;3.03;2.23;;;22.10;48.80;;;-142.21;52.61;112049.66;5116282;28;20198;-75
2022/07/17 00:32:44;;;;;;;2.40;2.20;;;22.00;48.90;;;-142.21;53.50;112049.66;5115055;28;20234;-76
2022/07/17 00:35:13;;;;;;;2.33;2.10;;;22.00;49.30;;;-142.21;53.55;112049.66;5115812;28;20300;-75
2022/07/17 00:37:41;;;;;;;2.33;2.13;;;21.90;49.40;;;-142.21;54.44;112049.66;5115107;28;20192;-76
2022/07/17 00:40:14;;;;;;;3.17;2.13;;;21.90;49.60;;;-142.21;55.81;112049.66;5115830;28;20196;-77
2022/07/17 00:42:43;;;;;;;2.27;2.07;;;21.80;49.90;;;-142.21;55.02;112049.66;5115488;28;20191;-75
2022/07/17 00:45:13;;;;;;;2.20;2.07;;;21.80;49.80;;;-142.21;55.21;112049.66;5115458;28;20227;-76
2022/07/17 00:47:53;;;;;;;1.80;1.70;;;21.70;49.80;;;-142.21;56.91;112049.66;5114070;28;20231;-76
2022/07/17 00:50:23;;;;;;;2.70;2.10;;;21.60;50.60;;;-142.21;56.62;112049.66;5105082;28;20591;-76
2022/07/17 00:52:51;;;;;;;2.33;1.97;;;21.60;50.40;;;-142.21;57.01;112049.66;5114568;28;20291;-75
2022/07/17 00:55:19;;;;;;;2.20;2.00;;;21.60;50.50;;;-142.21;58.48;112049.66;5115601;28;20224;-76
2022/07/17 00:57:51;;;;;;;2.23;2.03;;;21.40;50.70;;;-142.21;59.43;112049.66;5115260;28;20196;-76
2022/07/17 01:00:19;;;;;;;2.30;2.10;;;21.40;51.10;;;-142.21;59.68;112049.66;5113812;28;20199;-76
2022/07/17 01:02:48;;;;;;;3.83;2.40;;;21.30;51.00;;;-142.21;60.17;112049.66;5115290;28;20196;-76
2022/07/17 01:05:17;;;;;;;2.07;1.90;;;21.30;51.10;;;-142.21;60.62;112049.66;5115572;28;20332;-76
2022/07/17 01:07:45;;;;;;;2.53;2.07;;;21.20;51.30;;;-142.21;60.42;112049.66;5114503;28;20242;-75
2022/07/17 01:10:13;;;;;;;2.63;2.10;;;21.20;51.30;;;-142.21;60.25;112049.66;5115541;28;20227;-76
2022/07/17 01:12:43;;;;;;;2.97;2.20;;;21.20;51.40;;;-142.21;61.57;112049.66;5114698;28;20226;-76
2022/07/17 01:15:14;;;;;;;2.50;2.20;;;21.20;51.60;;;-142.21;61.99;112049.66;5114813;28;20291;-75
2022/07/17 01:17:42;;;;;;;3.77;2.10;;;21.10;51.80;;;-142.21;61.41;112049.66;5115354;28;20281;-75
2022/07/17 01:20:12;;;;;;;3.97;2.30;;;21.10;51.60;;;-142.21;62.54;112049.66;5114801;28;20231;-75
2022/07/17 01:22:47;;;;;;;3.03;2.67;;;21.10;51.90;;;-142.21;62.62;112049.66;5114347;28;20703;-77
2022/07/17 01:25:16;;;;;;;2.53;2.33;;;21.00;52.00;;;-142.21;62.79;112049.66;5115143;28;20222;-75
2022/07/17 01:27:43;;;;;;;2.53;2.33;;;21.00;52.10;;;-142.21;63.45;112049.66;5114189;28;20701;-76
2022/07/17 01:30:12;;;;;;;2.70;2.50;;;20.90;52.10;;;-142.21;64.14;112049.66;5114398;28;20196;-76
2022/07/17 01:32:42;;;;;;;2.60;2.40;;;20.80;52.20;;;-142.21;64.99;112049.66;5113831;28;20227;-76
2022/07/17 01:35:13;;;;;;;4.07;2.60;;;20.80;52.60;;;-142.21;65.33;112049.66;5114879;28;20254;-76
2022/07/17 01:37:42;;;;;;;2.70;2.50;;;20.70;52.70;;;-142.21;65.83;112049.66;5114416;28;20649;-76
2022/07/17 01:40:14;;;;;;;3.13;2.67;;;20.60;52.90;;;-142.21;65.91;112049.66;5114610;28;20192;-76
2022/07/17 01:42:46;;;;;;;3.27;2.50;;;20.60;53.00;;;-142.21;66.56;112049.66;5114550;28;20242;-76
2022/07/17 01:45:15;;;;;;;2.87;2.50;;;20.60;52.90;;;-142.21;66.61;112049.66;5114258;28;20267;-76
2022/07/17 01:47:43;;;;;;;3.27;2.43;;;20.50;53.00;;;-142.21;67.24;112049.66;5113795;28;20207;-76
2022/07/17 01:50:12;;;;;;;4.47;2.30;;;20.50;53.20;;;-142.21;67.21;112049.66;5114171;28;20219;-77
2022/07/17 01:52:42;;;;;;;2.83;2.33;;;20.40;53.30;;;-142.21;67.10;112049.66;5113992;28;20238;-76
2022/07/17 01:55:13;;;;;;;2.80;2.57;;;20.40;53.40;;;-142.21;68.53;112049.66;5114319;28;20239;-75
2022/07/17 01:57:42;;;;;;;2.70;2.33;;;20.40;53.70;;;-142.21;69.26;112049.66;5114059;28;20276;-77
2022/07/17 02:00:16;;;;;;;3.53;2.67;;;20.30;53.70;;;-142.21;70.28;112049.66;5114173;28;20245;-77
2022/07/17 02:02:43;;;;;;;2.73;2.53;;;20.30;54.10;;;-142.21;70.60;112049.66;5113524;28;20192;-76
2022/07/17 02:05:11;;;;;;;2.87;2.60;;;20.20;54.30;;;-142.21;70.41;112049.66;5056560;28;20678;-76
2022/07/17 02:07:39;;;;;;;2.83;2.57;;;20.10;54.30;;;-142.21;70.95;112049.66;5095878;28;20208;-77
2022/07/17 02:10:13;;;;;;;2.80;2.60;;;20.10;54.40;;;-142.21;71.34;112049.66;5113884;28;20233;-76
2022/07/17 02:12:40;;;;;;;3.67;2.80;;;20.00;54.70;;;-142.21;72.30;112049.66;5112938;28;20648;-76
2022/07/17 02:15:08;;;;;;;3.20;2.50;;;20.00;54.60;;;-142.21;72.27;112049.66;5113441;28;20532;-76
2022/07/17 02:17:36;;;;;;;2.90;2.70;;;20.00;54.90;;;-142.21;72.94;112049.66;5114193;28;20254;-76
2022/07/17 02:20:04;;;;;;;2.90;2.70;;;20.00;54.90;;;-142.21;73.25;112049.66;5111991;28;20200;-76
2022/07/17 02:22:31;;;;;;;2.67;2.47;;;20.00;55.20;;;-142.21;73.04;112049.66;5113667;28;20477;-76
2022/07/17 02:24:58;;;;;;;3.87;2.70;;;19.90;55.00;;;-142.21;73.34;112049.66;5113308;28;20204;-76
2022/07/17 02:27:27;;;;;;;2.70;2.50;;;19.90;55.00;;;-142.21;73.87;112049.66;5113615;28;20200;-76
2022/07/17 02:29:54;;;;;;;2.57;2.37;;;19.90;55.20;;;-142.21;74.22;112049.66;5113194;28;20202;-76
2022/07/17 02:32:21;;;;;;;3.80;2.70;;;19.90;55.90;;;-142.21;74.45;112049.66;5077214;28;20231;-76
2022/07/17 02:34:48;;;;;;;2.90;2.60;;;19.80;55.30;;;-142.21;75.39;112049.66;5112981;28;20203;-76
2022/07/17 02:37:16;;;;;;;2.73;2.53;;;19.70;55.50;;;-142.21;75.49;112049.66;5113625;28;20258;-76
2022/07/17 02:39:53;;;;;;;2.67;2.47;;;19.70;55.60;;;-142.21;76.10;112049.66;5112971;28;20235;-76
2022/07/17 02:42:21;;;;;;;2.90;2.70;;;19.60;55.80;;;-142.21;76.58;112049.66;5113341;28;20187;-78
2022/07/17 02:44:51;;;;;;;4.67;2.70;;;19.60;56.10;;;-142.21;77.11;112049.66;5113125;28;20207;-76
2022/07/17 02:47:23;;;;;;;3.43;3.17;;;19.50;56.30;;;-142.21;77.55;112049.66;5113260;28;20246;-75
2022/07/17 02:49:50;;;;;;;4.57;3.10;;;19.40;56.40;;;-142.21;77.16;112049.66;5112519;28;20696;-76
2022/07/17 02:52:21;;;;;;;2.97;2.77;;;19.40;56.30;;;-142.21;77.85;112049.66;5113229;28;20488;-76
2022/07/17 02:54:48;;;;;;;3.27;2.97;;;19.40;56.40;;;-142.21;77.67;112049.66;5112497;28;20283;-76
2022/07/17 02:57:16;;;;;;;3.57;3.10;;;19.40;57.20;;;-142.21;77.46;112049.66;5112950;28;20488;-76
2022/07/17 02:59:43;;;;;;;3.83;2.90;;;19.30;56.50;;;-142.21;78.08;112049.66;5112715;28;20200;-75
2022/07/17 03:02:14;;;;;;;3.20;2.90;;;19.30;56.60;;;-142.21;77.91;112049.66;5112704;28;20467;-75
2022/07/17 03:04:42;;;;;;;3.10;2.80;;;19.20;56.70;;;-142.21;78.11;112049.66;5112352;28;20644;-76
2022/07/17 03:07:09;;;;;;;3.00;2.70;;;19.20;56.80;;;-142.21;78.14;112049.66;5112591;28;20532;-76
2022/07/17 03:09:36;;;;;;;4.10;2.70;;;19.20;56.70;;;-142.21;78.49;112049.66;5112742;28;20726;-75
2022/07/17 03:12:04;;;;;;;3.47;3.17;;;19.10;56.70;;;-142.21;78.19;112049.66;5112636;28;20441;-75
2022/07/17 03:14:31;;;;;;;4.57;3.00;;;19.10;56.80;;;-142.21;79.22;112049.66;5113396;28;20227;-76
2022/07/17 03:16:58;;;;;;;2.80;2.60;;;19.10;57.00;;;-142.21;79.47;112049.66;5110799;28;20277;-75
2022/07/17 03:19:26;;;;;;;4.07;3.40;;;19.00;57.00;;;-142.21;79.69;112049.66;5112589;28;20537;-75
2022/07/17 03:21:54;;;;;;;3.63;3.10;;;19.00;57.30;;;-142.21;80.45;112049.66;5112450;28;20306;-77
2022/07/17 03:24:21;;;;;;;3.30;3.00;;;18.90;57.20;;;-142.21;80.54;112049.66;5112247;28;20445;-75
2022/07/17 03:26:48;;;;;;;4.97;3.00;;;18.90;57.30;;;-142.21;80.75;112049.66;5112150;28;20529;-76
2022/07/17 03:29:17;;;;;;;4.90;3.50;;;18.80;57.60;;;-142.21;80.75;112049.66;5112831;28;20192;-77
2022/07/17 03:31:44;;;;;;;3.60;3.30;;;18.90;57.50;;;-142.21;81.21;112049.66;5111179;28;20235;-76
2022/07/17 03:34:11;;;;;;;4.20;3.00;;;18.80;57.90;;;-142.21;81.96;112049.66;5112705;28;21023;-76
2022/07/17 03:36:40;;;;;;;4.67;3.13;;;18.80;57.90;;;-142.21;82.20;112049.66;5112019;28;20223;-76
2022/07/17 03:39:07;;;;;;;3.93;3.63;;;18.80;58.10;;;-142.21;82.04;112049.66;5113038;28;20499;-76
2022/07/17 03:41:35;;;;;;;3.47;3.17;;;18.80;58.10;;;-142.21;82.28;112049.66;5112857;28;20522;-76
2022/07/17 03:44:02;;;;;;;10.33;3.40;;;18.70;58.10;;;-142.21;82.29;112049.66;5112189;28;20477;-76
2022/07/17 03:46:29;;;;;;;3.40;3.10;;;18.70;58.10;;;-142.21;81.58;112049.66;5111794;28;20481;-75
2022/07/17 03:48:57;;;;;;;3.50;3.20;;;18.70;58.00;;;-142.21;81.58;112049.66;5112029;28;20552;-75
2022/07/17 03:51:24;;;;;;;3.87;3.47;;;18.70;58.00;;;-142.21;81.57;112049.66;5112176;28;20965;-76
2022/07/17 03:53:52;;;;;;;3.40;3.10;;;18.70;58.10;;;-142.21;81.89;112049.66;5110808;28;20498;-76
2022/07/17 03:56:20;;;;;;;5.73;3.30;;;18.60;58.10;;;-142.21;82.05;112049.66;5112494;28;20485;-76
2022/07/17 03:58:47;;;;;;;3.23;2.97;;;18.60;58.20;;;-142.21;81.73;112049.66;5111917;28;20533;-76
2022/07/17 04:01:14;;;;;;;3.50;3.20;;;18.60;58.60;;;-142.21;81.30;112049.66;5110166;28;20532;-75
2022/07/17 04:03:42;;;;;;;4.43;3.37;;;18.60;58.00;;;-142.21;81.81;112049.66;5112548;28;20503;-76
2022/07/17 04:06:09;;;;;;;3.17;2.93;;;18.60;58.20;;;-142.21;82.13;112049.66;5112075;28;20294;-76
2022/07/17 04:08:36;;;;;;;4.60;3.50;;;18.60;58.00;;;-142.21;81.61;112049.66;5111069;28;20284;-76
2022/07/17 04:11:06;;;;;;;7.57;4.20;;;18.60;58.10;;;-142.21;83.16;112049.66;5111416;28;20314;-76
2022/07/17 04:13:33;;;;;;;7.47;4.03;;;18.60;58.60;;;-142.21;84.25;112049.66;5103849;28;20492;-76
2022/07/17 04:16:00;;;;;;;7.40;4.10;;;18.60;59.10;;;-142.21;84.87;112049.66;5111286;28;20576;-75
2022/07/17 04:18:31;;;;;;;8.60;3.90;;;18.60;59.20;;;-142.21;84.09;112049.66;5112210;28;20287;-75
2022/07/17 04:21:00;;;;;;;7.50;4.00;;;18.60;59.40;;;-142.21;84.57;112049.66;5110865;28;20978;-75
2022/07/17 04:23:29;;;;;;;4.43;3.70;;;18.60;59.40;;;-142.21;84.20;112049.66;5106702;28;20434;-76
2022/07/17 04:25:56;;;;;;;4.37;3.90;;;18.60;59.30;;;-142.21;84.37;112049.66;5111290;28;20528;-76
2022/07/17 04:28:25;;;;;;;4.10;3.70;;;18.70;59.30;;;-142.21;84.31;112049.66;5111676;28;20606;-76
2022/07/17 04:30:52;;;;;;;3.93;3.60;;;18.60;59.40;;;-142.21;83.90;112049.66;5111676;28;20441;-76
2022/07/17 04:33:19;;;;;;;4.10;3.47;;;18.60;59.30;;;-142.21;85.27;112049.66;5112088;28;20520;-76
2022/07/17 04:35:47;;;;;;;4.07;3.30;;;18.60;59.50;;;-142.21;85.18;112049.66;5114262;28;20199;-74
2022/07/17 04:38:15;;;;;;;3.80;3.40;;;18.70;59.70;;;-142.21;85.20;112049.66;5115924;28;20249;-75
2022/07/17 04:40:42;;;;;;;4.17;3.77;;;18.70;59.60;;;-142.21;84.25;112049.66;5115999;28;20469;-76
2022/07/17 04:43:10;;;;;;;4.40;4.00;;;18.70;59.50;;;-142.21;84.57;112049.66;5115635;28;20528;-76
2022/07/17 04:45:38;;;;;;;6.97;3.33;;;18.70;59.40;;;-142.21;83.94;112049.66;5115802;28;20789;-76
2022/07/17 04:48:06;;;;;;;13.27;5.77;;;18.80;59.30;;;-142.21;86.18;112049.66;5115527;28;20515;-76
2022/07/17 04:50:34;;;;;;;7.23;4.40;;;18.80;60.00;;;-142.21;85.76;112049.66;5115945;28;20553;-76
2022/07/17 04:53:01;;;;;;;7.60;4.33;;;18.80;60.00;;;-142.21;85.99;112049.66;5114550;28;20525;-76
2022/07/17 04:55:28;;;;;;;5.30;3.70;;;18.90;59.80;;;-142.21;85.79;112049.66;5114040;28;20817;-75
2022/07/17 04:57:56;;;;;;;6.53;4.07;;;19.00;60.00;;;-142.21;85.87;112049.66;5114169;28;20280;-75
2022/07/17 05:00:23;;;;;;;6.50;3.77;;;19.00;60.00;;;-142.21;85.07;112049.66;5115968;28;20847;-75
2022/07/17 05:02:53;;;;;;;12.27;5.50;;;19.00;59.60;;;-142.21;85.90;112049.66;5115001;28;20453;-76
2022/07/17 05:05:20;;;;;;;10.23;4.67;;;19.10;60.10;;;-142.21;84.20;112049.66;5115528;28;20851;-75
2022/07/17 05:07:48;;;;;;;4.60;3.50;;;19.10;59.40;;;-142.21;82.56;112049.66;5114697;28;20196;-76
2022/07/17 05:10:16;;;;;;;5.03;3.07;;;19.20;58.90;;;-142.21;81.54;112049.66;5114569;28;20477;-74
2022/07/17 05:12:43;;;;;;;3.47;2.63;;;19.20;58.40;;;-142.21;80.85;112049.66;5115098;28;20446;-76
2022/07/17 05:15:11;;;;;;;3.37;2.50;;;19.30;58.80;;;-142.21;79.46;112049.66;5114981;28;20473;-76
2022/07/17 05:17:38;;;;;;;3.50;2.73;;;19.40;57.80;;;-142.21;79.83;112049.66;5114700;28;20836;-76
2022/07/17 05:20:09;;;;;;;3.17;2.87;;;19.50;57.60;;;-142.21;78.42;112049.66;5114204;28;20192;-76
2022/07/17 05:22:36;;;;;;;3.17;2.90;;;19.60;57.40;;;-142.21;78.94;112049.66;5114686;28;20441;-76
2022/07/17 05:25:03;;;;;;;3.50;2.67;;;19.60;57.40;;;-142.21;77.92;112049.66;5113956;28;20711;-76
2022/07/17 05:27:31;;;;;;;2.60;2.40;;;19.70;57.10;;;-142.21;77.09;112049.66;5078953;28;20231;-76
2022/07/17 05:29:58;;;;;;;3.37;2.83;;;19.80;56.90;;;-142.21;77.02;112049.66;5113768;28;20967;-75
2022/07/17 05:32:25;;;;;;;4.33;2.70;;;19.90;56.80;;;-142.21;76.87;112049.66;5114399;28;20537;-75
2022/07/17 05:34:52;;;;;;;3.40;2.37;;;19.90;56.70;;;-142.21;77.01;112049.66;5114171;28;20200;-75
2022/07/17 05:37:21;;;;;;;3.17;2.60;;;20.00;56.70;;;-142.21;76.45;112049.66;5104262;28;20247;-75
2022/07/17 05:39:48;;;;;;;2.50;2.30;;;20.10;56.60;;;-142.21;75.55;112049.66;5113554;28;20301;-74
2022/07/17 05:42:15;;;;;;;2.37;2.17;;;20.10;56.30;;;-142.21;73.93;112049.66;5114380;28;20577;-75
2022/07/17 05:44:42;;;;;;;2.43;2.20;;;20.20;56.00;;;-142.21;73.17;112049.66;5114718;28;20470;-74
2022/07/17 05:47:09;;;;;;;3.23;2.50;;;20.30;55.60;;;-142.21;72.16;112049.66;5112359;28;20536;-76
2022/07/17 05:49:37;;;;;;;4.73;2.27;;;20.30;55.20;;;-142.21;71.24;112049.66;5114754;28;20258;-76
2022/07/17 05:52:04;;;;;;;3.17;2.53;;;20.40;55.00;;;-142.21;70.83;112049.66;5113816;28;20200;-75
2022/07/17 05:54:33;;;;;;;4.10;2.57;;;20.40;54.90;;;-142.21;71.54;112049.66;5114570;28;20227;-76
2022/07/17 05:57:00;;;;;;;3.97;2.83;;;20.50;55.40;;;-142.21;70.19;112049.66;5113237;28;20281;-76
2022/07/17 05:59:28;;;;;;;3.60;2.50;;;20.60;54.50;;;-142.21;69.62;112049.66;5114747;28;20195;-76
2022/07/17 06:01:55;;;;;;;3.20;2.20;;;20.70;55.00;;;-142.21;67.73;112049.66;5113779;28;20257;-76
2022/07/17 06:04:22;;;;;;;2.47;2.07;;;20.80;53.90;;;-142.21;67.56;112049.66;5114015;28;20236;-75
2022/07/17 06:06:49;;;;;;;4.47;2.23;;;20.80;53.90;;;-142.21;67.54;112049.66;5113092;28;20196;-75
2022/07/17 06:09:17;;;;;;;3.67;2.20;;;20.90;53.90;;;-142.21;68.81;112049.66;5113703;28;20245;-75
2022/07/17 06:11:45;;;;;;;2.20;2.00;;;21.00;54.00;;;-142.21;67.78;112049.66;5114013;28;20231;-75
2022/07/17 06:14:12;;;;;;;3.50;2.00;;;21.00;53.80;;;-142.21;64.30;112049.66;5113628;28;20616;-75
2022/07/17 06:16:40;;;;;;;2.10;1.90;;;21.10;53.00;;;-142.21;63.87;112049.66;5113988;28;20622;-76
2022/07/17 06:19:10;;;;;;;1.70;1.60;;;21.20;52.80;;;-142.21;61.20;112049.66;5113107;28;20278;-75
2022/07/17 06:21:38;;;;;;;3.27;2.10;;;21.30;52.20;;;-142.21;61.63;112049.66;5113411;28;20237;-75
2022/07/17 06:24:07;;;;;;;2.30;1.63;;;21.30;52.10;;;-142.21;61.13;112049.66;5113095;28;20600;-74
2022/07/17 06:26:34;;;;;;;11.73;2.57;;;21.40;52.00;;;-142.21;61.85;112049.66;5113199;28;20223;-74
2022/07/17 06:29:03;;;;;;;2.90;1.90;;;21.50;52.00;;;-142.21;60.97;112049.66;5113484;28;20215;-75
2022/07/17 06:31:30;;;;;;;2.80;2.10;;;21.50;51.60;;;-142.21;60.12;112049.66;5113444;28;20606;-74
2022/07/17 06:33:57;;;;;;;4.57;1.90;;;21.60;51.50;;;-142.21;59.17;112049.66;5112086;28;20252;-74
2022/07/17 06:36:26;;;;;;;2.30;1.60;;;21.60;51.30;;;-142.21;58.93;112049.66;5113313;28;20210;-74
2022/07/17 06:38:53;;;;;;;2.67;1.93;;;21.70;51.10;;;-142.21;58.47;112049.66;5112562;28;20210;-75
2022/07/17 06:41:20;;;;;;;2.23;1.90;;;21.80;50.90;;;-142.21;57.10;112049.66;5113754;28;20282;-75
2022/07/17 06:43:48;;;;;;;2.57;1.90;;;21.90;50.50;;;-142.21;57.33;112049.66;5113138;28;20261;-74
2022/07/17 06:46:16;;;;;;;1.70;1.60;;;22.00;50.70;;;-142.21;55.22;112049.66;5112023;28;20196;-75
2022/07/17 06:48:44;;;;;;;2.87;1.83;;;22.10;50.10;;;-142.21;54.93;112049.66;5112888;28;20237;-76
2022/07/17 06:51:11;;;;;;;4.67;1.80;;;22.20;50.00;;;-142.21;54.77;112049.66;5112405;28;20225;-75
2022/07/17 06:53:38;;;;;;;2.07;1.70;;;22.30;49.80;;;-142.21;54.65;112049.66;5113087;28;20253;-75
2022/07/17 06:56:06;;;;;;;1.60;1.50;;;22.30;49.80;;;-142.21;54.08;112049.66;5112441;28;20574;-75
2022/07/17 06:58:33;;;;;;;2.33;1.90;;;22.30;49.40;;;-142.21;52.99;112049.66;5112813;28;20280;-75
2022/07/17 07:01:00;;;;;;;2.13;1.43;;;22.40;49.30;;;-142.21;52.25;112049.66;5112063;28;20783;-75
2022/07/17 07:03:29;;;;;;;1.97;1.50;;;22.50;48.80;;;-142.21;52.10;112049.66;5112602;28;20212;-75
2022/07/17 07:05:56;;;;;;;2.47;1.53;;;22.60;48.70;;;-142.21;52.17;112049.66;5112455;28;20231;-75
2022/07/17 07:08:23;;;;;;;1.90;1.50;;;22.60;48.80;;;-142.21;51.66;112049.66;5109458;28;20231;-75
2022/07/17 07:10:50;;;;;;;5.13;2.20;;;22.70;48.70;;;-142.21;51.47;112049.66;5112675;28;20243;-75
2022/07/17 07:13:18;;;;;;;1.80;1.70;;;22.80;48.70;;;-142.21;51.26;112049.66;5096084;28;20200;-75
2022/07/17 07:15:45;;;;;;;4.40;1.20;;;22.90;48.50;;;-142.21;50.43;112049.66;5112758;28;20545;-75
2022/07/17 07:18:12;;;;;;;1.83;1.50;;;23.00;48.30;;;-142.21;49.63;112049.66;5111950;28;20302;-74
2022/07/17 07:20:40;;;;;;;2.30;1.60;;;23.10;48.10;;;-142.21;49.85;112049.66;5112479;28;20196;-75
2022/07/17 07:23:08;;;;;;;2.03;1.40;;;23.20;48.00;;;-142.21;48.81;112049.66;5112108;28;20225;-75
2022/07/17 07:25:35;;;;;;;2.17;1.80;;;23.30;47.50;;;-142.21;48.94;112049.66;5112424;28;20203;-75
2022/07/17 07:28:03;;;;;;;4.20;1.60;;;23.40;47.50;;;-142.21;48.65;112049.66;5111247;28;20244;-75
2022/07/17 07:30:30;;;;;;;1.50;1.37;;;23.40;48.10;;;-142.21;48.79;112049.66;5112589;28;20202;-75
2022/07/17 07:32:57;;;;;;;1.80;1.60;;;23.60;47.70;;;-142.21;47.76;112049.66;5111750;28;20230;-75
2022/07/17 07:35:25;;;;;;;3.43;1.67;;;23.60;47.30;;;-142.21;48.34;112049.66;5112562;28;20209;-75
2022/07/17 07:37:54;;;;;;;2.43;1.83;;;23.70;47.30;;;-142.21;48.52;112049.66;5112481;28;20304;-75
2022/07/17 07:40:21;;;;;;;2.40;1.60;;;23.90;48.00;;;-142.21;47.77;112049.66;5112100;28;20741;-75
2022/07/17 07:42:48;;;;;;;5.70;2.00;;;24.00;47.20;;;-142.21;48.26;112049.66;5112162;28;20199;-75
2022/07/17 07:45:15;;;;;;;1.47;1.37;;;24.10;47.20;;;-142.21;46.27;112049.66;5111620;28;20285;-75
2022/07/17 07:47:44;;;;;;;2.23;1.40;;;24.20;47.30;;;-142.21;46.28;112049.66;5112182;28;20287;-75
2022/07/17 07:50:13;;;;;;;2.90;1.40;;;24.30;46.50;;;-142.21;46.90;112049.66;5111184;28;20305;-74
2022/07/17 07:52:41;;;;;;;2.97;2.03;;;24.40;46.80;;;-142.21;45.75;112049.66;5111426;28;20252;-74
2022/07/17 07:55:12;;;;;;;2.03;1.83;;;24.50;46.10;;;-142.21;45.72;112049.66;5111699;28;20592;-75
2022/07/17 07:57:39;;;;;;;2.40;1.57;;;24.60;46.10;;;-142.21;45.42;112049.66;5112022;28;20255;-75
2022/07/17 08:00:10;;;;;;;1.60;1.40;;;24.60;45.90;;;-142.21;46.06;112049.66;5112002;28;20195;-75
2022/07/17 08:02:38;;;;;;;2.80;1.40;;;24.80;46.20;;;-142.21;45.81;112049.66;5112316;28;20668;-75
2022/07/17 08:05:06;;;;;;;4.13;1.60;;;24.90;46.20;;;-142.21;45.01;112049.66;5112136;28;20211;-75
2022/07/17 08:07:37;;;;;;;1.87;1.77;;;25.00;45.80;;;-142.21;44.74;112049.66;5112585;28;20231;-75
2022/07/17 08:10:05;;;;;;;1.80;1.40;;;25.10;45.60;;;-142.21;43.51;112049.66;5113242;28;20219;-75
2022/07/17 08:12:34;;;;;;;2.07;1.50;;;25.20;44.60;;;-142.21;44.84;112049.66;5116686;28;20283;-75
2022/07/17 08:15:01;;;;;;;2.67;1.63;;;25.30;45.40;;;-142.21;44.06;112049.66;5115062;28;20200;-75
2022/07/17 08:17:28;;;;;;;1.90;1.60;;;25.40;45.00;;;-142.21;43.54;112049.66;5116625;28;20231;-78
2022/07/17 08:19:56;;;;;;;1.97;1.47;;;25.40;44.60;;;-142.21;43.81;112049.66;5115803;28;20196;-75
2022/07/17 08:22:23;;;;;;;2.83;1.90;;;25.50;44.80;;;-142.21;43.10;112049.66;5115861;28;20239;-76
2022/07/17 08:24:50;;;;;;;1.67;1.27;;;25.70;44.80;;;-142.21;41.51;112049.66;5116328;28;20601;-75
2022/07/17 08:27:17;;;;;;;1.77;1.50;;;25.70;43.50;;;-142.21;42.58;112049.66;5113014;28;20261;-75
2022/07/17 08:29:46;;;;;;;1.73;1.53;;;25.80;44.00;;;-142.21;43.38;112049.66;5113641;28;20211;-75
2022/07/17 08:32:14;;;;;;;3.00;1.40;;;26.00;44.60;;;-142.21;43.30;112049.66;5114898;28;20242;-74
2022/07/17 08:34:41;;;;;;;1.83;1.50;;;26.10;44.30;;;-142.21;43.89;112049.66;5115396;28;20226;-74
2022/07/17 08:37:08;;;;;;;2.17;1.50;;;26.10;44.60;;;-142.21;43.85;112049.66;5115141;28;20200;-76
2022/07/17 08:39:35;;;;;;;1.87;1.70;;;26.30;44.90;;;-142.21;41.88;112049.66;5114943;28;20239;-75
2022/07/17 08:42:04;;;;;;;1.50;1.40;;;26.40;43.80;;;-142.21;41.37;112049.66;5112993;28;20257;-75
2022/07/17 08:44:31;;;;;;;1.77;1.50;;;26.50;43.60;;;-142.21;40.83;112049.66;5115282;28;20214;-76
2022/07/17 08:47:01;;;;;;;1.67;1.13;;;26.60;43.00;;;-142.21;42.42;112049.66;5115215;28;20208;-76
2022/07/17 08:49:29;;;;;;;1.60;1.50;;;26.60;43.90;;;-142.21;43.03;112049.66;5114783;28;20281;-75
2022/07/17 08:51:56;;;;;;;2.33;1.70;;;26.70;44.00;;;-142.21;42.60;112049.66;5115780;28;20742;-75
2022/07/17 08:54:24;;;;;;;1.50;1.40;;;26.80;43.80;;;-142.21;41.41;112049.66;5115245;28;20207;-74
2022/07/17 08:56:51;;;;;;;3.27;1.57;;;26.90;43.60;;;-142.21;41.20;112049.66;5114926;28;20211;-75
2022/07/17 08:59:18;;;;;;;2.17;1.60;;;27.00;43.00;;;-142.21;40.50;112049.66;5114928;28;20307;-75
2022/07/17 09:01:45;;;;;;;2.03;1.53;;;27.10;42.70;;;-142.21;39.32;112049.66;5115502;28;20236;-75
2022/07/17 09:04:14;;;;;;;3.40;1.57;;;27.20;41.90;;;-142.21;40.10;112049.66;5114453;28;20542;-75
2022/07/17 09:06:41;;;;;;;1.53;1.43;;;27.20;42.10;;;-142.21;39.96;112049.66;5114962;28;20286;-76
2022/07/17 09:09:11;;;;;;;1.63;1.50;;;27.30;42.20;;;-142.21;39.98;112049.66;5113762;28;20199;-75
2022/07/17 09:11:47;;;;;;;3.07;1.37;;;27.40;42.20;;;-142.21;39.69;112049.66;5115276;28;20209;-76
2022/07/17 09:14:15;;;;;;;1.67;1.57;;;27.50;41.70;;;-142.21;39.00;112049.66;5099166;28;20279;-75
2022/07/17 09:16:52;;;;;;;1.77;1.43;;;27.60;41.70;;;-142.21;39.19;112049.66;5114916;28;20196;-75
2022/07/17 09:19:28;;;;;;;1.53;1.40;;;27.60;41.70;;;-142.21;37.31;112049.66;5114312;28;20204;-75
2022/07/17 09:22:08;;;;;;;1.43;1.30;;;27.70;40.30;;;-142.21;38.93;112049.66;5113879;28;20196;-75
2022/07/17 09:24:46;;;;;;;2.63;1.60;;;27.90;41.20;;;-142.21;37.92;112049.66;5114983;28;20216;-73
2022/07/17 09:27:18;;;;;;;3.30;1.60;;;27.90;40.60;;;-142.21;37.66;112049.66;5107929;28;20285;-76
2022/07/17 09:29:55;;;;;;;2.00;1.50;;;28.00;40.90;;;-142.21;38.34;112049.66;5115032;28;20200;-75
2022/07/17 09:32:25;;;;;;;1.67;1.50;;;28.10;40.60;;;-142.21;38.73;112049.66;5113896;28;20201;-75
2022/07/17 09:34:56;;;;;;;2.60;1.60;;;28.20;41.10;;;-142.21;37.69;112049.66;5114661;28;20216;-75
2022/07/17 09:37:24;;;;;;;2.10;1.40;;;28.30;40.70;;;-142.21;36.80;112049.66;5114548;28;20194;-75
2022/07/17 09:39:53;;;;;;;2.70;1.70;;;28.40;39.80;;;-142.21;36.92;112049.66;5114711;28;20293;-76
2022/07/17 09:42:31;;;;;;;1.57;1.40;;;28.50;39.80;;;-142.21;36.03;112049.66;5114017;28;20298;-76
2022/07/17 09:45:07;;;;;;;2.97;1.47;;;28.60;39.70;;;-142.21;35.32;112049.66;5114805;28;20197;-74
2022/07/17 09:47:37;;;;;;;1.57;1.13;;;28.60;38.00;;;-142.21;35.47;112049.66;5114432;28;20222;-75
2022/07/17 09:50:09;;;;;;;2.90;1.40;;;28.70;38.80;;;-142.21;34.71;112049.66;5114317;28;20238;-75
2022/07/17 09:52:38;;;;;;;2.47;1.67;;;28.80;38.10;;;-142.21;34.34;112049.66;5097780;28;20683;-75
2022/07/17 09:55:06;;;;;;;2.13;1.70;;;28.90;37.60;;;-142.21;32.97;112049.66;5114256;28;20617;-75
2022/07/17 09:57:35;;;;;;;1.50;1.40;;;28.90;36.60;;;-142.21;34.20;112049.66;5113510;28;20245;-74
2022/07/17 10:00:11;;;;;;;2.47;1.60;;;29.00;37.40;;;-142.21;34.95;112049.66;5061846;28;20654;-74
2022/07/17 10:02:41;;;;;;;1.60;1.50;;;29.10;37.90;;;-142.21;34.12;112049.66;5113117;28;20198;-74
2022/07/17 10:05:12;;;;;;;1.67;1.57;;;29.20;37.10;;;-142.21;34.08;112049.66;5108933;28;20228;-74